createdAt,value
2018-06-30T00:01:29.284Z,93.80
2018-06-30T00:03:59.417Z,94.00
2018-06-30T00:06:29.588Z,94.20
2018-06-30T00:08:59.716Z,94.40
2018-06-30T00:11:29.885Z,94.40
2018-06-30T00:14:00.049Z,94.70
2018-06-30T00:16:30.204Z,94.70
2018-06-30T00:19:00.365Z,94.70
2018-06-30T00:21:30.512Z,94.80
2018-06-30T00:24:00.667Z,94.80
2018-06-30T00:26:30.842Z,94.90
2018-06-30T00:29:01.005Z,95.00
2018-06-30T00:31:31.098Z,95.10
2018-06-30T00:34:01.239Z,95.00
2018-06-30T00:36:31.360Z,95.10
2018-06-30T00:39:01.497Z,95.20
2018-06-30T00:41:33.032Z,95.30
2018-06-30T00:44:03.384Z,95.40
2018-06-30T00:46:33.517Z,95.60
2018-06-30T00:49:03.751Z,95.60
2018-06-30T00:51:33.897Z,95.80
2018-06-30T00:54:04.084Z,95.90
2018-06-30T00:56:34.185Z,95.90
2018-06-30T00:59:04.334Z,95.90
2018-06-30T01:01:34.496Z,96.10
2018-06-30T01:04:05.020Z,95.90
2018-06-30T01:06:35.137Z,96.10
2018-06-30T01:09:07.280Z,96.20
2018-06-30T01:11:37.444Z,96.50
2018-06-30T01:14:07.648Z,96.60
2018-06-30T01:16:37.771Z,96.80
2018-06-30T01:19:07.880Z,96.90
2018-06-30T01:21:38.209Z,97.10
2018-06-30T01:24:08.837Z,97.20
2018-06-30T01:26:38.998Z,97.70
2018-06-30T01:29:09.107Z,97.90
2018-06-30T01:31:39.213Z,97.90
2018-06-30T01:34:09.329Z,98.00
2018-06-30T01:36:39.416Z,98.30
2018-06-30T01:39:11.508Z,98.40
2018-06-30T01:41:41.901Z,98.50
2018-06-30T01:44:12.028Z,98.60
2018-06-30T01:46:42.138Z,98.80
2018-06-30T01:49:12.276Z,98.70
2018-06-30T01:51:45.388Z,98.80
2018-06-30T01:54:15.520Z,98.90
2018-06-30T01:56:45.628Z,98.80
2018-06-30T01:59:15.778Z,98.90
2018-06-30T02:01:45.922Z,98.80
2018-06-30T02:04:16.074Z,98.80
2018-06-30T02:06:46.189Z,99.10
2018-06-30T02:09:16.313Z,99.60
2018-06-30T02:11:46.452Z,99.60
2018-06-30T02:14:16.589Z,99.30
2018-06-30T02:16:46.739Z,99.50
2018-06-30T02:19:16.887Z,99.60
2018-06-30T02:21:47.042Z,99.70
2018-06-30T02:24:17.129Z,99.70
2018-06-30T02:26:47.233Z,99.90
2018-06-30T02:29:17.384Z,99.90
2018-06-30T02:31:47.491Z,99.90
2018-06-30T02:34:17.608Z,99.90
2018-06-30T02:36:47.729Z,99.90
2018-06-30T02:39:17.849Z,99.90
2018-06-30T02:41:47.978Z,99.90
2018-06-30T02:44:18.066Z,99.90
2018-06-30T02:46:48.200Z,99.90
2018-06-30T02:49:18.350Z,99.90
2018-06-30T02:51:48.457Z,99.90
2018-06-30T02:54:18.591Z,99.90
2018-06-30T02:56:48.743Z,99.90
2018-06-30T02:59:18.961Z,99.90
2018-06-30T03:01:49.093Z,99.90
2018-06-30T03:04:19.238Z,99.90
2018-06-30T03:06:49.398Z,99.90
2018-06-30T03:09:19.517Z,99.90
2018-06-30T03:11:49.672Z,99.90
2018-06-30T03:14:19.812Z,99.90
2018-06-30T03:16:49.937Z,99.90
2018-06-30T03:19:20.041Z,99.90
2018-06-30T03:21:50.172Z,99.90
2018-06-30T03:24:20.284Z,99.90
2018-06-30T03:26:50.448Z,99.90
2018-06-30T03:29:20.580Z,99.90
2018-06-30T03:31:50.693Z,99.90
2018-06-30T03:34:20.820Z,99.90
2018-06-30T03:36:50.946Z,99.90
2018-06-30T03:39:21.071Z,99.90
2018-06-30T03:41:51.592Z,99.90
2018-06-30T03:44:21.716Z,99.70
2018-06-30T03:46:51.837Z,99.90
2018-06-30T03:49:21.944Z,99.90
2018-06-30T03:51:52.056Z,99.70
2018-06-30T03:54:22.224Z,99.60
2018-06-30T03:56:52.374Z,99.50
2018-06-30T03:59:22.497Z,99.20
2018-06-30T04:04:22.308Z,98.70
2018-06-30T04:06:52.425Z,98.60
2018-06-30T04:09:22.520Z,98.70
2018-06-30T04:11:52.632Z,98.20
2018-06-30T04:14:22.797Z,97.00
2018-06-30T04:16:53.020Z,96.10
2018-06-30T04:19:23.108Z,95.10
2018-06-30T04:21:53.228Z,93.80
2018-06-30T04:24:23.353Z,92.10
2018-06-30T04:26:53.466Z,91.00
2018-06-30T04:29:23.668Z,89.30
2018-06-30T04:31:53.797Z,86.90
2018-06-30T04:34:23.892Z,86.30
2018-06-30T04:36:53.992Z,85.20
2018-06-30T04:39:24.109Z,86.10
2018-06-30T04:41:54.232Z,85.90
2018-06-30T04:44:24.362Z,85.00
2018-06-30T04:46:54.456Z,84.20
2018-06-30T04:49:24.545Z,82.00
2018-06-30T04:51:54.633Z,78.70
2018-06-30T04:56:54.431Z,75.90
2018-06-30T04:59:24.528Z,74.50
2018-06-30T05:01:54.617Z,73.80
2018-06-30T05:04:24.720Z,72.60
2018-06-30T05:06:54.805Z,72.30
2018-06-30T05:09:24.938Z,68.70
2018-06-30T05:11:55.060Z,66.30
2018-06-30T05:14:25.184Z,65.20
2018-06-30T05:16:55.285Z,64.10
2018-06-30T05:19:25.367Z,62.90
2018-06-30T05:21:55.498Z,62.40
2018-06-30T05:24:25.640Z,61.20
2018-06-30T05:26:55.862Z,62.30
2018-06-30T05:29:25.971Z,59.40
2018-06-30T05:31:56.112Z,58.90
2018-06-30T05:34:26.188Z,58.10
2018-06-30T05:36:56.303Z,57.10
2018-06-30T05:39:26.393Z,58.80
2018-06-30T05:41:56.508Z,57.00
2018-06-30T05:44:26.618Z,57.00
2018-06-30T05:46:56.700Z,55.60
2018-06-30T05:49:26.825Z,55.30
2018-06-30T05:51:56.940Z,54.00
2018-06-30T05:54:27.113Z,55.10
2018-06-30T05:56:57.281Z,53.70
2018-06-30T05:59:27.469Z,53.00
2018-06-30T06:01:57.568Z,51.40
2018-06-30T06:04:27.696Z,50.60
2018-06-30T06:06:57.785Z,50.30
2018-06-30T06:09:27.931Z,51.80
2018-06-30T06:11:58.016Z,51.70
2018-06-30T06:14:28.120Z,51.70
2018-06-30T06:16:58.336Z,51.60
2018-06-30T06:19:28.492Z,50.70
2018-06-30T06:21:58.688Z,49.10
2018-06-30T06:24:28.780Z,48.80
2018-06-30T06:26:58.962Z,50.80
2018-06-30T06:29:29.100Z,52.90
2018-06-30T06:31:59.488Z,52.20
2018-06-30T06:34:29.604Z,51.50
2018-06-30T06:36:59.736Z,51.30
2018-06-30T06:39:29.908Z,51.10
2018-06-30T06:42:00.026Z,50.70
2018-06-30T06:44:30.163Z,50.20
2018-06-30T06:47:00.417Z,50.10
2018-06-30T06:52:00.219Z,50.70
2018-06-30T06:54:30.528Z,51.50
2018-06-30T06:59:30.293Z,49.50
2018-06-30T07:06:59.808Z,47.40
2018-06-30T07:09:29.938Z,45.80
2018-06-30T07:12:00.097Z,46.30
2018-06-30T07:14:30.303Z,45.10
2018-06-30T07:17:00.397Z,45.30
2018-06-30T07:19:30.558Z,45.70
2018-06-30T07:22:00.690Z,46.70
2018-06-30T07:24:30.869Z,46.90
2018-06-30T07:29:30.685Z,41.80
2018-06-30T07:32:00.805Z,42.80
2018-06-30T07:34:30.901Z,41.70
2018-06-30T07:37:01.013Z,41.00
2018-06-30T07:39:31.125Z,41.60
2018-06-30T07:42:01.252Z,41.50
2018-06-30T07:44:31.372Z,38.50
2018-06-30T07:47:01.500Z,39.20
2018-06-30T07:49:31.614Z,39.90
2018-06-30T07:52:01.824Z,40.60
2018-06-30T07:54:31.944Z,40.10
2018-06-30T07:57:02.067Z,39.50
2018-06-30T07:59:32.164Z,38.50
2018-06-30T08:02:02.332Z,39.20
2018-06-30T08:04:32.425Z,37.30
2018-06-30T08:07:02.529Z,38.10
2018-06-30T08:09:32.788Z,36.00
2018-06-30T08:12:03.080Z,36.40
2018-06-30T08:14:33.201Z,39.60
2018-06-30T08:17:03.324Z,37.10
2018-06-30T08:19:33.441Z,37.00
2018-06-30T08:22:03.599Z,36.00
2018-06-30T08:27:03.411Z,35.90
2018-06-30T08:29:33.545Z,35.50
2018-06-30T08:32:03.636Z,34.80
2018-06-30T08:34:33.712Z,34.40
2018-06-30T08:37:03.905Z,34.30
2018-06-30T08:42:03.947Z,35.20
2018-06-30T08:44:34.120Z,35.40
2018-06-30T08:47:04.592Z,36.10
2018-06-30T08:49:34.728Z,36.20
2018-06-30T08:52:04.957Z,37.00
2018-06-30T08:54:35.068Z,38.00
2018-06-30T08:57:05.506Z,39.50
2018-06-30T08:59:35.595Z,40.20
2018-06-30T09:02:05.782Z,40.40
2018-06-30T09:04:35.899Z,40.20
2018-06-30T09:07:06.120Z,40.70
2018-06-30T09:09:36.228Z,40.20
2018-06-30T09:12:06.507Z,40.70
2018-06-30T09:14:36.680Z,40.70
2018-06-30T09:19:36.600Z,41.50
2018-06-30T09:22:06.972Z,39.70
2018-06-30T09:24:37.116Z,41.10
2018-06-30T09:27:07.245Z,39.40
2018-06-30T09:29:37.446Z,39.10
2018-06-30T09:32:08.240Z,40.00
2018-06-30T09:34:38.416Z,40.70
2018-06-30T09:37:08.518Z,40.90
2018-06-30T09:39:38.792Z,41.30
2018-06-30T09:42:08.921Z,41.60
2018-06-30T09:44:39.100Z,40.80
2018-06-30T09:47:09.208Z,41.80
2018-06-30T09:49:39.327Z,41.80
2018-06-30T09:52:09.444Z,42.60
2018-06-30T09:54:39.605Z,41.90
2018-06-30T09:57:09.817Z,39.80
2018-06-30T09:59:39.923Z,40.30
2018-06-30T10:02:10.109Z,40.70
2018-06-30T10:04:40.221Z,40.10
2018-06-30T10:07:10.434Z,40.70
2018-06-30T10:09:40.640Z,39.20
2018-06-30T10:12:10.743Z,40.70
2018-06-30T10:14:40.896Z,42.30
2018-06-30T10:17:10.992Z,41.20
2018-06-30T10:19:41.145Z,42.50
2018-06-30T10:22:11.384Z,43.30
2018-06-30T10:24:41.545Z,41.90
2018-06-30T10:27:11.608Z,42.00
2018-06-30T10:29:41.705Z,43.30
2018-06-30T10:32:11.853Z,42.00
2018-06-30T10:34:42.005Z,43.60
2018-06-30T10:37:12.180Z,42.60
2018-06-30T10:39:42.272Z,44.20
2018-06-30T10:42:12.420Z,44.10
2018-06-30T10:44:42.517Z,44.30
2018-06-30T10:47:12.690Z,44.50
2018-06-30T10:49:42.782Z,43.50
2018-06-30T10:52:12.898Z,43.80
2018-06-30T10:54:43.012Z,43.70
2018-06-30T10:57:13.257Z,42.10
2018-06-30T10:59:43.393Z,42.90
2018-06-30T11:02:13.567Z,44.30
2018-06-30T11:04:43.812Z,44.60
2018-06-30T11:07:14.210Z,43.20
2018-06-30T11:09:44.337Z,45.20
2018-06-30T11:12:14.756Z,45.20
2018-06-30T11:14:44.925Z,44.60
2018-06-30T11:17:15.064Z,46.60
2018-06-30T11:19:45.203Z,44.70
2018-06-30T11:22:15.316Z,43.50
2018-06-30T11:24:45.526Z,43.80
2018-06-30T11:27:15.809Z,42.10
2018-06-30T11:29:45.964Z,42.00
2018-06-30T11:32:16.081Z,45.20
2018-06-30T11:34:46.177Z,44.40
2018-06-30T11:37:16.336Z,44.90
2018-06-30T11:39:46.467Z,44.60
2018-06-30T11:42:16.664Z,45.10
2018-06-30T11:44:46.847Z,44.70
2018-06-30T11:47:16.947Z,44.10
2018-06-30T11:49:47.179Z,44.60
2018-06-30T11:54:46.944Z,42.70
2018-06-30T11:57:17.144Z,43.10
2018-06-30T11:59:47.452Z,43.20
2018-06-30T12:02:17.624Z,42.90
2018-06-30T12:04:47.873Z,43.80
2018-06-30T12:07:17.952Z,45.30
2018-06-30T12:09:48.052Z,45.20
2018-06-30T12:14:47.852Z,45.00
2018-06-30T12:17:17.950Z,46.50
2018-06-30T12:19:48.089Z,44.70
2018-06-30T12:22:18.198Z,44.10
2018-06-30T12:24:48.318Z,45.00
2018-06-30T12:27:18.416Z,45.80
2018-06-30T12:29:48.551Z,41.40
2018-06-30T12:32:18.705Z,43.80
2018-06-30T12:34:48.828Z,45.10
2018-06-30T12:37:18.932Z,44.90
2018-06-30T12:39:49.224Z,44.00
2018-06-30T12:42:19.352Z,43.10
2018-06-30T12:44:49.431Z,43.70
2018-06-30T12:47:19.576Z,43.00
2018-06-30T12:49:49.701Z,43.30
2018-06-30T12:52:19.956Z,45.30
2018-06-30T12:54:50.129Z,45.30
2018-06-30T12:57:20.169Z,45.30
2018-06-30T12:59:50.267Z,44.80
2018-06-30T13:04:50.408Z,43.30
2018-06-30T13:07:20.642Z,43.10
2018-06-30T13:09:50.753Z,43.70
2018-06-30T13:12:21.184Z,42.50
2018-06-30T13:14:51.632Z,42.60
2018-06-30T13:17:22.084Z,43.30
2018-06-30T13:19:52.404Z,42.50
2018-06-30T13:22:22.524Z,41.40
2018-06-30T13:24:52.728Z,42.60
2018-06-30T13:27:22.865Z,41.90
2018-06-30T13:29:52.943Z,43.00
2018-06-30T13:32:23.061Z,43.00
2018-06-30T13:34:53.137Z,43.60
2018-06-30T13:37:23.316Z,45.20
2018-06-30T13:39:53.851Z,44.60
2018-06-30T13:42:23.984Z,44.90
2018-06-30T13:44:54.262Z,45.80
2018-06-30T13:47:24.992Z,45.80
2018-06-30T13:49:55.200Z,44.70
2018-06-30T13:52:25.410Z,44.00
2018-06-30T13:54:55.844Z,44.80
2018-06-30T13:57:25.993Z,45.10
2018-06-30T13:59:56.089Z,45.10
2018-06-30T14:04:56.028Z,45.90
2018-06-30T14:07:26.242Z,45.10
2018-06-30T14:09:56.674Z,45.60
2018-06-30T14:12:26.922Z,53.50
2018-06-30T14:14:57.055Z,56.50
2018-06-30T14:17:27.220Z,58.20
2018-06-30T14:19:57.390Z,59.00
2018-06-30T14:22:27.593Z,60.40
2018-06-30T14:24:57.693Z,60.50
2018-06-30T14:27:27.816Z,62.00
2018-06-30T14:29:58.009Z,63.70
2018-06-30T14:32:28.388Z,63.20
2018-06-30T14:34:58.556Z,65.00
2018-06-30T14:37:28.754Z,65.10
2018-06-30T14:39:58.862Z,65.50
2018-06-30T14:42:29.093Z,66.00
2018-06-30T14:44:59.261Z,66.00
2018-06-30T14:47:29.410Z,65.60
2018-06-30T14:49:59.538Z,66.30
2018-06-30T14:52:29.833Z,66.80
2018-06-30T14:54:59.933Z,67.60
2018-06-30T14:57:30.049Z,66.10
2018-06-30T15:00:00.241Z,66.00
2018-06-30T15:02:30.445Z,66.40
2018-06-30T15:05:00.560Z,67.40
2018-06-30T15:07:30.663Z,67.80
2018-06-30T15:10:00.755Z,66.90
2018-06-30T15:12:30.856Z,69.40
2018-06-30T15:17:30.736Z,68.50
2018-06-30T15:20:00.953Z,69.70
2018-06-30T15:22:31.144Z,69.70
2018-06-30T15:25:01.397Z,69.30
2018-06-30T15:27:31.573Z,69.90
2018-06-30T15:32:31.491Z,69.20
2018-06-30T15:35:01.632Z,67.50
2018-06-30T15:37:31.792Z,68.60
2018-06-30T15:42:31.662Z,68.30
2018-06-30T15:45:01.724Z,68.00
2018-06-30T15:47:31.922Z,67.80
2018-06-30T15:50:02.198Z,69.10
2018-06-30T15:52:32.380Z,68.60
2018-06-30T15:55:02.584Z,68.40
2018-06-30T15:57:32.764Z,68.50
2018-06-30T16:00:02.871Z,68.00
2018-06-30T16:02:32.992Z,69.50
2018-06-30T16:05:03.130Z,69.60
2018-06-30T16:10:03.037Z,70.10
2018-06-30T16:12:33.256Z,69.70
2018-06-30T16:15:03.488Z,70.20
2018-06-30T16:17:33.662Z,70.30
2018-06-30T16:20:03.849Z,70.10
2018-06-30T16:22:34.127Z,70.70
2018-06-30T16:25:05.080Z,70.90
2018-06-30T16:27:35.187Z,71.30
2018-06-30T16:30:06.485Z,72.20
2018-06-30T16:32:36.564Z,72.40
2018-06-30T16:35:06.764Z,72.40
2018-06-30T16:37:36.888Z,73.30
2018-06-30T16:40:07.121Z,73.20
2018-06-30T16:42:37.318Z,72.50
2018-06-30T16:45:07.508Z,72.70
2018-06-30T16:47:37.855Z,72.60
2018-06-30T16:50:08.140Z,72.60
2018-06-30T16:52:39.109Z,72.20
2018-06-30T16:55:09.260Z,72.90
2018-06-30T16:57:39.530Z,73.10
2018-06-30T17:00:10.316Z,73.50
2018-06-30T17:02:40.440Z,74.00
2018-06-30T17:05:10.583Z,74.10
2018-06-30T17:07:40.768Z,74.70
2018-06-30T17:10:10.917Z,75.10
2018-06-30T17:12:41.156Z,75.10
2018-06-30T17:15:11.957Z,75.20
2018-06-30T17:17:42.068Z,75.60
2018-06-30T17:20:12.181Z,76.00
2018-06-30T17:22:42.300Z,77.00
2018-06-30T17:25:12.492Z,76.70
2018-06-30T17:27:42.654Z,77.00
2018-06-30T17:30:12.828Z,76.30
2018-06-30T17:32:43.015Z,77.30
2018-06-30T17:35:13.224Z,77.60
2018-06-30T17:37:43.332Z,78.50
2018-06-30T17:40:13.496Z,78.80
2018-06-30T17:42:43.668Z,78.40
2018-06-30T17:45:13.782Z,78.60
2018-06-30T17:47:43.892Z,79.40
2018-06-30T17:50:14.096Z,79.40
2018-06-30T17:52:45.005Z,80.60
2018-06-30T17:55:15.106Z,80.60
2018-06-30T18:00:15.396Z,82.30
2018-06-30T18:02:45.812Z,82.80
2018-06-30T18:05:16.059Z,83.40
2018-06-30T18:07:46.220Z,83.70
2018-06-30T18:10:16.551Z,84.00
2018-06-30T18:12:46.641Z,84.10
2018-06-30T18:15:16.724Z,82.30
2018-06-30T18:17:46.800Z,82.10
2018-06-30T18:20:17.048Z,82.20
2018-06-30T18:22:47.195Z,82.70
2018-06-30T18:25:17.305Z,82.20
2018-06-30T18:27:48.016Z,82.90
2018-06-30T18:30:18.152Z,82.40
2018-06-30T18:32:48.311Z,83.10
2018-06-30T18:35:18.504Z,83.40
2018-06-30T18:37:48.596Z,83.50
2018-06-30T18:40:18.767Z,83.80
2018-06-30T18:42:49.235Z,84.60
2018-06-30T18:45:19.435Z,85.30
2018-06-30T18:47:49.635Z,84.80
2018-06-30T18:50:19.812Z,80.20
2018-06-30T18:52:49.950Z,80.60
2018-06-30T18:55:20.121Z,78.00
2018-06-30T18:57:50.285Z,77.30
2018-06-30T19:00:20.512Z,71.40
2018-06-30T19:02:50.592Z,70.80
2018-06-30T19:05:20.927Z,65.90
2018-06-30T19:07:51.168Z,66.10
2018-06-30T19:10:21.331Z,66.30
2018-06-30T19:12:51.467Z,65.00
2018-06-30T19:15:21.916Z,64.20
2018-06-30T19:20:22.078Z,63.40
2018-06-30T19:22:52.405Z,64.00
2018-06-30T19:25:22.721Z,65.10
2018-06-30T19:27:52.820Z,63.70
2018-06-30T19:30:23.196Z,62.50
2018-06-30T19:32:53.496Z,63.20
2018-06-30T19:35:23.620Z,62.70
2018-06-30T19:37:53.988Z,63.60
2018-06-30T19:40:24.104Z,60.50
2018-06-30T19:42:54.204Z,58.30
2018-06-30T19:45:24.489Z,56.50
2018-06-30T19:47:54.595Z,55.90
2018-06-30T19:50:24.698Z,56.80
2018-06-30T19:52:55.880Z,57.00
2018-06-30T19:55:25.984Z,57.80
2018-06-30T19:57:56.947Z,56.40
2018-06-30T20:00:27.360Z,57.00
2018-06-30T20:02:57.592Z,57.50
2018-06-30T20:05:27.715Z,57.00
2018-06-30T20:07:57.976Z,57.30
2018-06-30T20:10:28.135Z,57.30
2018-06-30T20:12:58.341Z,57.70
2018-06-30T20:15:28.644Z,57.60
2018-06-30T20:17:58.796Z,57.20
2018-06-30T20:22:58.926Z,57.20
2018-06-30T20:25:29.092Z,56.20
2018-06-30T20:27:59.218Z,56.50
2018-06-30T20:32:59.020Z,57.00
2018-06-30T20:37:58.907Z,56.50
2018-06-30T20:40:29.021Z,57.50
2018-06-30T20:42:59.168Z,56.40
2018-06-30T20:45:29.336Z,56.00
2018-06-30T20:47:59.397Z,55.10
2018-06-30T20:50:29.558Z,56.00
2018-06-30T20:52:59.690Z,56.10
2018-06-30T20:55:29.794Z,55.40
2018-06-30T20:57:59.912Z,55.30
2018-06-30T21:00:29.992Z,55.50
2018-06-30T21:03:00.121Z,55.70
2018-06-30T21:05:30.347Z,56.00
2018-06-30T21:08:00.552Z,55.30
2018-06-30T21:10:30.784Z,54.70
2018-06-30T21:13:00.880Z,55.00
2018-06-30T21:15:30.984Z,54.90
2018-06-30T21:18:01.137Z,54.60
2018-06-30T21:20:31.247Z,55.00
2018-06-30T21:23:01.458Z,53.70
2018-06-30T21:25:31.564Z,53.80
2018-06-30T21:28:01.783Z,54.10
2018-06-30T21:30:31.982Z,54.60
2018-06-30T21:33:02.030Z,54.90
2018-06-30T21:35:32.249Z,54.90
2018-06-30T21:38:02.336Z,55.20
2018-06-30T21:40:32.457Z,56.00
2018-06-30T21:43:02.557Z,55.90
2018-06-30T21:45:32.656Z,56.20
2018-06-30T21:48:02.781Z,56.40
2018-06-30T21:50:32.921Z,55.80
2018-06-30T21:53:03.036Z,56.40
2018-06-30T21:55:33.148Z,56.10
2018-06-30T21:58:03.315Z,56.50
2018-06-30T22:00:50.523Z,56.90
2018-06-30T22:03:23.556Z,56.80
2018-06-30T22:05:57.938Z,56.90
2018-06-30T22:08:28.084Z,56.80
2018-06-30T22:10:58.296Z,57.30
2018-06-30T22:13:28.393Z,57.30
2018-06-30T22:15:58.517Z,58.40
2018-06-30T22:18:28.668Z,58.00
2018-06-30T22:20:58.813Z,58.50
2018-06-30T22:23:28.948Z,58.40
2018-06-30T22:25:59.101Z,58.70
2018-06-30T22:28:29.261Z,59.10
2018-06-30T22:30:59.390Z,59.20
2018-06-30T22:33:29.488Z,59.20
2018-06-30T22:35:59.636Z,59.40
2018-06-30T22:38:29.772Z,59.60
2018-06-30T22:40:59.944Z,59.70
2018-06-30T22:43:30.092Z,59.80
2018-06-30T22:46:00.221Z,60.00
2018-06-30T22:48:30.362Z,61.60
2018-06-30T22:51:00.505Z,62.70
2018-06-30T22:53:30.617Z,62.40
2018-06-30T22:56:00.734Z,62.20
2018-06-30T22:58:30.872Z,62.30
2018-06-30T23:01:01.000Z,62.60
2018-06-30T23:03:31.174Z,62.80
2018-06-30T23:06:01.281Z,63.50
2018-06-30T23:08:31.428Z,62.60
2018-06-30T23:11:01.569Z,62.60
2018-06-30T23:13:31.713Z,62.80
2018-06-30T23:18:31.516Z,63.30
2018-06-30T23:23:31.439Z,63.90
2018-06-30T23:26:01.573Z,64.40
2018-06-30T23:28:31.676Z,64.80
2018-06-30T23:31:01.783Z,65.00
2018-06-30T23:33:31.868Z,64.50
2018-06-30T23:36:02.048Z,63.70
2018-06-30T23:38:32.170Z,63.60
2018-06-30T23:41:02.308Z,64.70
2018-06-30T23:43:32.414Z,65.20
2018-06-30T23:46:02.541Z,65.40
2018-06-30T23:48:32.656Z,65.70
2018-06-30T23:51:02.777Z,66.70
2018-06-30T23:53:32.972Z,66.70
2018-06-30T23:56:03.084Z,66.70
2018-06-30T23:58:33.169Z,67.70
